sensor_id;sensor_type;location;lat;lon;timestamp;temperature;humidity
51021;DHT22;38907;45.562;8.856;2023-02-11T00:03:24;0.90;98.40
51021;DHT22;38907;45.562;8.856;2023-02-11T00:08:27;1.00;98.30
51021;DHT22;38907;45.562;8.856;2023-02-11T00:13:29;1.20;98.10
51021;DHT22;38907;45.562;8.856;2023-02-11T00:18:31;0.90;98.30
51021;DHT22;38907;45.562;8.856;2023-02-11T00:23:34;0.70;98.80
51021;DHT22;38907;45.562;8.856;2023-02-11T00:28:36;0.80;98.80
51021;DHT22;38907;45.562;8.856;2023-02-11T00:33:38;0.70;98.90
51021;DHT22;38907;45.562;8.856;2023-02-11T00:38:43;0.70;99.10
51021;DHT22;38907;45.562;8.856;2023-02-11T00:43:45;0.70;99.50
51021;DHT22;38907;45.562;8.856;2023-02-11T00:48:47;0.60;99.60
51021;DHT22;38907;45.562;8.856;2023-02-11T00:53:52;0.80;99.50
51021;DHT22;38907;45.562;8.856;2023-02-11T00:58:54;0.70;99.50
51021;DHT22;38907;45.562;8.856;2023-02-11T01:03:56;0.80;99.50
51021;DHT22;38907;45.562;8.856;2023-02-11T01:08:59;0.80;99.00
51021;DHT22;38907;45.562;8.856;2023-02-11T01:14:02;0.40;99.40
51021;DHT22;38907;45.562;8.856;2023-02-11T01:19:04;0.10;99.90
51021;DHT22;38907;45.562;8.856;2023-02-11T01:24:07;0.00;99.90
51021;DHT22;38907;45.562;8.856;2023-02-11T01:29:09;0.10;99.90
51021;DHT22;38907;45.562;8.856;2023-02-11T01:34:11;0.20;99.90
51021;DHT22;38907;45.562;8.856;2023-02-11T01:39:14;0.40;99.90
51021;DHT22;38907;45.562;8.856;2023-02-11T01:44:24;0.50;99.90
51021;DHT22;38907;45.562;8.856;2023-02-11T01:49:29;0.40;99.90
51021;DHT22;38907;45.562;8.856;2023-02-11T01:54:35;0.40;99.90
51021;DHT22;38907;45.562;8.856;2023-02-11T02:00:01;0.30;99.90
51021;DHT22;38907;45.562;8.856;2023-02-11T02:05:09;0.20;99.90
51021;DHT22;38907;45.562;8.856;2023-02-11T02:10:19;0.00;99.90
51021;DHT22;38907;45.562;8.856;2023-02-11T02:15:25;0.00;99.90
51021;DHT22;38907;45.562;8.856;2023-02-11T02:26:32;0.10;99.90
51021;DHT22;38907;45.562;8.856;2023-02-11T02:31:58;0.20;99.90
51021;DHT22;38907;45.562;8.856;2023-02-11T02:37:09;0.10;99.90
51021;DHT22;38907;45.562;8.856;2023-02-11T02:42:15;0.00;99.90
51021;DHT22;38907;45.562;8.856;2023-02-11T02:47:18;-0.10;99.90
51021;DHT22;38907;45.562;8.856;2023-02-11T02:52:30;0.10;99.90
51021;DHT22;38907;45.562;8.856;2023-02-11T02:57:39;0.20;99.90
51021;DHT22;38907;45.562;8.856;2023-02-11T03:02:59;0.20;99.90
51021;DHT22;38907;45.562;8.856;2023-02-11T03:08:08;0.10;99.90
51021;DHT22;38907;45.562;8.856;2023-02-11T03:13:11;-0.10;99.90
51021;DHT22;38907;45.562;8.856;2023-02-11T03:18:18;-0.20;99.90
51021;DHT22;38907;45.562;8.856;2023-02-11T03:23:27;-0.30;99.90
51021;DHT22;38907;45.562;8.856;2023-02-11T03:28:32;-0.60;99.90
51021;DHT22;38907;45.562;8.856;2023-02-11T03:33:39;-0.60;99.90
51021;DHT22;38907;45.562;8.856;2023-02-11T03:38:47;-0.60;99.90
51021;DHT22;38907;45.562;8.856;2023-02-11T03:43:52;-0.50;99.90
51021;DHT22;38907;45.562;8.856;2023-02-11T03:48:58;-0.60;99.90
51021;DHT22;38907;45.562;8.856;2023-02-11T03:54:06;-0.40;99.90
51021;DHT22;38907;45.562;8.856;2023-02-11T03:59:09;-0.50;99.90
51021;DHT22;38907;45.562;8.856;2023-02-11T04:04:11;-0.50;99.90
51021;DHT22;38907;45.562;8.856;2023-02-11T04:09:15;-0.40;99.90
51021;DHT22;38907;45.562;8.856;2023-02-11T04:14:16;-0.40;99.90
51021;DHT22;38907;45.562;8.856;2023-02-11T04:19:18;-0.20;99.90
51021;DHT22;38907;45.562;8.856;2023-02-11T04:24:22;-0.20;99.90
51021;DHT22;38907;45.562;8.856;2023-02-11T04:29:23;-0.30;99.90
51021;DHT22;38907;45.562;8.856;2023-02-11T04:34:25;-0.40;99.90
51021;DHT22;38907;45.562;8.856;2023-02-11T04:39:29;-0.40;99.90
51021;DHT22;38907;45.562;8.856;2023-02-11T04:44:31;-0.30;99.90
51021;DHT22;38907;45.562;8.856;2023-02-11T04:49:33;-0.30;99.90
51021;DHT22;38907;45.562;8.856;2023-02-11T04:54:36;-0.30;99.90
51021;DHT22;38907;45.562;8.856;2023-02-11T04:59:38;-0.10;99.90
51021;DHT22;38907;45.562;8.856;2023-02-11T05:04:40;-0.20;99.90
51021;DHT22;38907;45.562;8.856;2023-02-11T05:09:43;-0.30;99.90
51021;DHT22;38907;45.562;8.856;2023-02-11T05:14:45;-0.50;99.90
51021;DHT22;38907;45.562;8.856;2023-02-11T05:19:46;-0.50;99.90
51021;DHT22;38907;45.562;8.856;2023-02-11T05:24:50;-0.40;99.90
51021;DHT22;38907;45.562;8.856;2023-02-11T05:29:51;-0.30;99.90
51021;DHT22;38907;45.562;8.856;2023-02-11T05:34:53;-0.50;99.90
51021;DHT22;38907;45.562;8.856;2023-02-11T05:39:56;-0.40;99.90
51021;DHT22;38907;45.562;8.856;2023-02-11T05:44:58;-0.50;99.90
51021;DHT22;38907;45.562;8.856;2023-02-11T05:50:00;-0.60;99.90
51021;DHT22;38907;45.562;8.856;2023-02-11T05:55:04;-0.60;99.90
51021;DHT22;38907;45.562;8.856;2023-02-11T06:00:07;-0.60;99.90
51021;DHT22;38907;45.562;8.856;2023-02-11T06:05:09;-0.60;99.90
51021;DHT22;38907;45.562;8.856;2023-02-11T06:10:12;-0.80;99.90
51021;DHT22;38907;45.562;8.856;2023-02-11T06:15:14;-0.90;99.90
51021;DHT22;38907;45.562;8.856;2023-02-11T06:20:16;-0.90;99.90
51021;DHT22;38907;45.562;8.856;2023-02-11T06:25:19;-1.00;99.90
51021;DHT22;38907;45.562;8.856;2023-02-11T06:30:21;-1.10;99.90
51021;DHT22;38907;45.562;8.856;2023-02-11T06:35:23;-1.00;99.90
51021;DHT22;38907;45.562;8.856;2023-02-11T06:40:26;-1.00;99.90
51021;DHT22;38907;45.562;8.856;2023-02-11T06:45:28;-1.40;99.90
51021;DHT22;38907;45.562;8.856;2023-02-11T06:50:30;-1.20;99.90
51021;DHT22;38907;45.562;8.856;2023-02-11T06:55:35;-1.00;99.90
51021;DHT22;38907;45.562;8.856;2023-02-11T07:00:37;-0.80;99.90
51021;DHT22;38907;45.562;8.856;2023-02-11T07:05:41;-0.90;99.90
51021;DHT22;38907;45.562;8.856;2023-02-11T07:10:44;-0.80;99.90
51021;DHT22;38907;45.562;8.856;2023-02-11T07:15:46;-0.60;99.90
51021;DHT22;38907;45.562;8.856;2023-02-11T07:20:48;-0.40;99.90
51021;DHT22;38907;45.562;8.856;2023-02-11T07:25:51;-0.20;99.90
51021;DHT22;38907;45.562;8.856;2023-02-11T07:30:53;-0.20;99.90
51021;DHT22;38907;45.562;8.856;2023-02-11T07:35:59;-0.30;99.90
51021;DHT22;38907;45.562;8.856;2023-02-11T07:41:03;-0.30;99.90
51021;DHT22;38907;45.562;8.856;2023-02-11T07:46:07;-0.10;99.90
51021;DHT22;38907;45.562;8.856;2023-02-11T07:51:10;0.20;99.90
51021;DHT22;38907;45.562;8.856;2023-02-11T07:56:15;0.50;99.90
51021;DHT22;38907;45.562;8.856;2023-02-11T08:01:19;0.60;99.90
51021;DHT22;38907;45.562;8.856;2023-02-11T08:06:23;0.70;99.90
51021;DHT22;38907;45.562;8.856;2023-02-11T08:11:27;0.70;99.90
51021;DHT22;38907;45.562;8.856;2023-02-11T08:16:30;1.00;99.90
51021;DHT22;38907;45.562;8.856;2023-02-11T08:21:32;1.20;99.90
51021;DHT22;38907;45.562;8.856;2023-02-11T08:26:36;1.40;99.90
51021;DHT22;38907;45.562;8.856;2023-02-11T08:31:41;1.70;99.90
51021;DHT22;38907;45.562;8.856;2023-02-11T08:36:43;2.00;99.90
51021;DHT22;38907;45.562;8.856;2023-02-11T08:41:49;2.20;99.90
51021;DHT22;38907;45.562;8.856;2023-02-11T08:46:51;2.40;99.90
51021;DHT22;38907;45.562;8.856;2023-02-11T08:51:53;2.60;99.90
51021;DHT22;38907;45.562;8.856;2023-02-11T08:56:57;2.80;99.90
51021;DHT22;38907;45.562;8.856;2023-02-11T09:01:59;3.10;99.90
51021;DHT22;38907;45.562;8.856;2023-02-11T09:07:01;3.30;99.90
51021;DHT22;38907;45.562;8.856;2023-02-11T09:12:05;3.60;99.90
51021;DHT22;38907;45.562;8.856;2023-02-11T09:17:07;3.80;99.20
51021;DHT22;38907;45.562;8.856;2023-02-11T09:22:09;4.10;99.10
51021;DHT22;38907;45.562;8.856;2023-02-11T09:27:12;4.30;98.60
51021;DHT22;38907;45.562;8.856;2023-02-11T09:32:14;4.50;96.90
51021;DHT22;38907;45.562;8.856;2023-02-11T09:37:16;4.70;96.60
51021;DHT22;38907;45.562;8.856;2023-02-11T09:42:39;5.10;96.60
51021;DHT22;38907;45.562;8.856;2023-02-11T09:47:48;5.10;95.80
51021;DHT22;38907;45.562;8.856;2023-02-11T09:52:54;5.10;95.00
51021;DHT22;38907;45.562;8.856;2023-02-11T09:58:00;5.20;95.60
51021;DHT22;38907;45.562;8.856;2023-02-11T10:08:42;5.40;96.30
51021;DHT22;38907;45.562;8.856;2023-02-11T10:13:57;5.30;96.10
51021;DHT22;38907;45.562;8.856;2023-02-11T10:19:11;5.30;96.20
51021;DHT22;38907;45.562;8.856;2023-02-11T10:24:15;5.60;96.30
51021;DHT22;38907;45.562;8.856;2023-02-11T10:29:30;5.50;96.40
51021;DHT22;38907;45.562;8.856;2023-02-11T10:34:43;5.60;96.70
51021;DHT22;38907;45.562;8.856;2023-02-11T10:39:44;5.80;97.50
51021;DHT22;38907;45.562;8.856;2023-02-11T10:44:56;6.00;97.00
51021;DHT22;38907;45.562;8.856;2023-02-11T10:49:58;6.10;96.70
51021;DHT22;38907;45.562;8.856;2023-02-11T10:55:09;6.40;98.40
51021;DHT22;38907;45.562;8.856;2023-02-11T11:00:36;6.50;97.60
51021;DHT22;38907;45.562;8.856;2023-02-11T11:05:46;6.50;96.90
51021;DHT22;38907;45.562;8.856;2023-02-11T11:11:01;6.50;96.30
51021;DHT22;38907;45.562;8.856;2023-02-11T11:16:20;6.40;96.60
51021;DHT22;38907;45.562;8.856;2023-02-11T11:21:25;6.50;96.30
51021;DHT22;38907;45.562;8.856;2023-02-11T11:26:28;6.50;95.90
51021;DHT22;38907;45.562;8.856;2023-02-11T11:31:48;6.80;97.00
51021;DHT22;38907;45.562;8.856;2023-02-11T11:36:51;7.00;95.90
51021;DHT22;38907;45.562;8.856;2023-02-11T11:41:57;6.90;95.30
51021;DHT22;38907;45.562;8.856;2023-02-11T11:47:18;7.00;95.30
51021;DHT22;38907;45.562;8.856;2023-02-11T11:52:32;7.20;95.70
51021;DHT22;38907;45.562;8.856;2023-02-11T11:57:37;7.30;95.10
51021;DHT22;38907;45.562;8.856;2023-02-11T12:08:15;7.50;94.40
51021;DHT22;38907;45.562;8.856;2023-02-11T12:13:33;7.50;95.20
51021;DHT22;38907;45.562;8.856;2023-02-11T12:19:08;7.60;95.60
51021;DHT22;38907;45.562;8.856;2023-02-11T12:24:28;7.50;94.70
51021;DHT22;38907;45.562;8.856;2023-02-11T12:29:40;7.70;94.70
51021;DHT22;38907;45.562;8.856;2023-02-11T12:34:59;7.70;93.90
51021;DHT22;38907;45.562;8.856;2023-02-11T12:40:12;7.80;94.60
51021;DHT22;38907;45.562;8.856;2023-02-11T12:45:22;8.00;96.00
51021;DHT22;38907;45.562;8.856;2023-02-11T12:50:35;8.10;94.00
51021;DHT22;38907;45.562;8.856;2023-02-11T12:55:43;8.10;92.90
51021;DHT22;38907;45.562;8.856;2023-02-11T13:00:48;8.10;92.20
51021;DHT22;38907;45.562;8.856;2023-02-11T13:05:56;8.20;91.50
51021;DHT22;38907;45.562;8.856;2023-02-11T13:11:01;8.30;91.00
51021;DHT22;38907;45.562;8.856;2023-02-11T13:16:06;8.30;90.30
51021;DHT22;38907;45.562;8.856;2023-02-11T13:21:30;8.30;88.80
51021;DHT22;38907;45.562;8.856;2023-02-11T13:26:40;8.30;88.30
51021;DHT22;38907;45.562;8.856;2023-02-11T13:31:52;8.50;90.80
51021;DHT22;38907;45.562;8.856;2023-02-11T13:36:57;8.50;88.70
51021;DHT22;38907;45.562;8.856;2023-02-11T13:42:02;8.50;88.50
51021;DHT22;38907;45.562;8.856;2023-02-11T13:47:05;8.60;88.10
51021;DHT22;38907;45.562;8.856;2023-02-11T13:52:22;8.80;87.40
51021;DHT22;38907;45.562;8.856;2023-02-11T13:57:40;8.80;83.80
51021;DHT22;38907;45.562;8.856;2023-02-11T14:02:42;8.70;81.80
51021;DHT22;38907;45.562;8.856;2023-02-11T14:08:22;8.80;84.00
51021;DHT22;38907;45.562;8.856;2023-02-11T14:14:13;8.80;83.50
51021;DHT22;38907;45.562;8.856;2023-02-11T14:19:29;8.90;82.50
51021;DHT22;38907;45.562;8.856;2023-02-11T14:24:51;8.90;83.30
51021;DHT22;38907;45.562;8.856;2023-02-11T14:30:08;8.90;82.40
51021;DHT22;38907;45.562;8.856;2023-02-11T14:35:18;8.90;80.80
51021;DHT22;38907;45.562;8.856;2023-02-11T14:40:29;8.90;81.50
51021;DHT22;38907;45.562;8.856;2023-02-11T14:45:34;9.00;81.10
51021;DHT22;38907;45.562;8.856;2023-02-11T14:50:40;8.90;81.00
51021;DHT22;38907;45.562;8.856;2023-02-11T14:55:47;9.00;80.40
51021;DHT22;38907;45.562;8.856;2023-02-11T15:00:53;9.00;78.00
51021;DHT22;38907;45.562;8.856;2023-02-11T15:05:56;9.00;78.30
51021;DHT22;38907;45.562;8.856;2023-02-11T15:11:02;8.90;77.50
51021;DHT22;38907;45.562;8.856;2023-02-11T15:16:08;8.90;75.50
51021;DHT22;38907;45.562;8.856;2023-02-11T15:21:10;8.90;74.30
51021;DHT22;38907;45.562;8.856;2023-02-11T15:26:18;8.90;73.90
51021;DHT22;38907;45.562;8.856;2023-02-11T15:31:23;8.90;75.80
51021;DHT22;38907;45.562;8.856;2023-02-11T15:36:25;8.80;76.30
51021;DHT22;38907;45.562;8.856;2023-02-11T15:41:36;8.80;75.80
51021;DHT22;38907;45.562;8.856;2023-02-11T15:46:39;8.70;75.90
51021;DHT22;38907;45.562;8.856;2023-02-11T15:51:44;8.60;75.10
51021;DHT22;38907;45.562;8.856;2023-02-11T15:56:49;8.60;75.40
51021;DHT22;38907;45.562;8.856;2023-02-11T16:01:52;8.60;76.30
51021;DHT22;38907;45.562;8.856;2023-02-11T16:06:55;8.60;76.90
51021;DHT22;38907;45.562;8.856;2023-02-11T16:11:59;8.50;77.10
51021;DHT22;38907;45.562;8.856;2023-02-11T16:17:04;8.40;77.00
51021;DHT22;38907;45.562;8.856;2023-02-11T16:22:21;8.20;77.50
51021;DHT22;38907;45.562;8.856;2023-02-11T16:27:25;8.10;78.20
51021;DHT22;38907;45.562;8.856;2023-02-11T16:32:29;7.90;79.60
51021;DHT22;38907;45.562;8.856;2023-02-11T16:37:32;7.70;80.50
51021;DHT22;38907;45.562;8.856;2023-02-11T16:42:34;7.60;80.60
51021;DHT22;38907;45.562;8.856;2023-02-11T16:47:36;7.50;80.20
51021;DHT22;38907;45.562;8.856;2023-02-11T16:52:43;7.40;81.00
51021;DHT22;38907;45.562;8.856;2023-02-11T16:57:45;7.30;82.60
51021;DHT22;38907;45.562;8.856;2023-02-11T17:02:47;7.20;82.40
51021;DHT22;38907;45.562;8.856;2023-02-11T17:07:50;7.00;84.00
51021;DHT22;38907;45.562;8.856;2023-02-11T17:12:52;7.00;82.80
51021;DHT22;38907;45.562;8.856;2023-02-11T17:17:54;7.00;87.20
51021;DHT22;38907;45.562;8.856;2023-02-11T17:22:58;6.90;83.70
51021;DHT22;38907;45.562;8.856;2023-02-11T17:28:00;6.70;85.20
51021;DHT22;38907;45.562;8.856;2023-02-11T17:33:01;6.60;85.90
51021;DHT22;38907;45.562;8.856;2023-02-11T17:38:05;6.40;86.00
51021;DHT22;38907;45.562;8.856;2023-02-11T17:43:06;6.40;85.80
51021;DHT22;38907;45.562;8.856;2023-02-11T17:48:08;6.30;84.80
51021;DHT22;38907;45.562;8.856;2023-02-11T17:53:11;6.10;84.60
51021;DHT22;38907;45.562;8.856;2023-02-11T17:58:14;6.00;85.20
51021;DHT22;38907;45.562;8.856;2023-02-11T18:03:16;6.00;85.50
51021;DHT22;38907;45.562;8.856;2023-02-11T18:08:20;6.00;85.90
51021;DHT22;38907;45.562;8.856;2023-02-11T18:13:22;5.90;86.30
51021;DHT22;38907;45.562;8.856;2023-02-11T18:18:24;5.90;87.00
51021;DHT22;38907;45.562;8.856;2023-02-11T18:23:27;5.80;88.40
51021;DHT22;38907;45.562;8.856;2023-02-11T18:28:29;5.80;88.80
51021;DHT22;38907;45.562;8.856;2023-02-11T18:33:31;5.80;87.00
51021;DHT22;38907;45.562;8.856;2023-02-11T18:38:34;5.70;87.80
51021;DHT22;38907;45.562;8.856;2023-02-11T18:43:36;5.60;88.00
51021;DHT22;38907;45.562;8.856;2023-02-11T18:48:39;5.60;88.50
51021;DHT22;38907;45.562;8.856;2023-02-11T18:53:42;5.60;88.30
51021;DHT22;38907;45.562;8.856;2023-02-11T18:58:44;5.60;87.40
51021;DHT22;38907;45.562;8.856;2023-02-11T19:03:46;5.60;88.30
51021;DHT22;38907;45.562;8.856;2023-02-11T19:08:51;5.40;88.30
51021;DHT22;38907;45.562;8.856;2023-02-11T19:13:53;5.30;88.80
51021;DHT22;38907;45.562;8.856;2023-02-11T19:18:56;5.30;89.30
51021;DHT22;38907;45.562;8.856;2023-02-11T19:23:59;5.30;90.00
51021;DHT22;38907;45.562;8.856;2023-02-11T19:29:03;5.20;90.10
51021;DHT22;38907;45.562;8.856;2023-02-11T19:34:05;5.10;90.20
51021;DHT22;38907;45.562;8.856;2023-02-11T19:39:09;4.90;90.20
51021;DHT22;38907;45.562;8.856;2023-02-11T19:44:12;4.90;90.30
51021;DHT22;38907;45.562;8.856;2023-02-11T19:49:15;4.90;89.80
51021;DHT22;38907;45.562;8.856;2023-02-11T19:54:24;4.90;90.20
51021;DHT22;38907;45.562;8.856;2023-02-11T19:59:26;4.90;90.80
51021;DHT22;38907;45.562;8.856;2023-02-11T20:04:28;4.80;90.70
51021;DHT22;38907;45.562;8.856;2023-02-11T20:09:32;4.80;90.40
51021;DHT22;38907;45.562;8.856;2023-02-11T20:14:34;4.90;91.00
51021;DHT22;38907;45.562;8.856;2023-02-11T20:19:37;4.90;91.30
51021;DHT22;38907;45.562;8.856;2023-02-11T20:24:40;4.80;91.40
51021;DHT22;38907;45.562;8.856;2023-02-11T20:29:55;4.70;91.10
51021;DHT22;38907;45.562;8.856;2023-02-11T20:34:57;4.80;91.30
51021;DHT22;38907;45.562;8.856;2023-02-11T20:40:01;4.70;91.80
51021;DHT22;38907;45.562;8.856;2023-02-11T20:45:03;4.70;92.10
51021;DHT22;38907;45.562;8.856;2023-02-11T20:50:06;4.60;92.20
51021;DHT22;38907;45.562;8.856;2023-02-11T20:55:10;4.60;91.60
51021;DHT22;38907;45.562;8.856;2023-02-11T21:00:13;4.60;91.80
51021;DHT22;38907;45.562;8.856;2023-02-11T21:05:15;4.60;92.20
51021;DHT22;38907;45.562;8.856;2023-02-11T21:10:18;4.50;92.50
51021;DHT22;38907;45.562;8.856;2023-02-11T21:15:20;4.30;93.00
51021;DHT22;38907;45.562;8.856;2023-02-11T21:20:23;4.20;93.40
51021;DHT22;38907;45.562;8.856;2023-02-11T21:25:26;4.00;93.30
51021;DHT22;38907;45.562;8.856;2023-02-11T21:30:29;3.90;92.90
51021;DHT22;38907;45.562;8.856;2023-02-11T21:35:31;3.90;93.00
51021;DHT22;38907;45.562;8.856;2023-02-11T21:40:35;3.80;93.40
51021;DHT22;38907;45.562;8.856;2023-02-11T21:45:41;3.60;93.50
51021;DHT22;38907;45.562;8.856;2023-02-11T21:50:45;3.70;93.50
51021;DHT22;38907;45.562;8.856;2023-02-11T21:55:49;3.70;93.60
51021;DHT22;38907;45.562;8.856;2023-02-11T22:00:51;3.70;93.10
51021;DHT22;38907;45.562;8.856;2023-02-11T22:05:52;3.70;93.10
51021;DHT22;38907;45.562;8.856;2023-02-11T22:11:02;3.70;93.10
51021;DHT22;38907;45.562;8.856;2023-02-11T22:16:07;3.70;93.50
51021;DHT22;38907;45.562;8.856;2023-02-11T22:21:11;3.70;93.50
51021;DHT22;38907;45.562;8.856;2023-02-11T22:26:16;3.40;93.20
51021;DHT22;38907;45.562;8.856;2023-02-11T22:31:20;3.20;93.60
51021;DHT22;38907;45.562;8.856;2023-02-11T22:36:24;3.20;93.90
51021;DHT22;38907;45.562;8.856;2023-02-11T22:41:28;3.20;94.20
51021;DHT22;38907;45.562;8.856;2023-02-11T22:46:30;3.20;94.20
51021;DHT22;38907;45.562;8.856;2023-02-11T22:51:32;3.30;94.20
51021;DHT22;38907;45.562;8.856;2023-02-11T22:56:35;3.20;94.20
51021;DHT22;38907;45.562;8.856;2023-02-11T23:01:37;3.00;94.40
51021;DHT22;38907;45.562;8.856;2023-02-11T23:06:39;3.10;94.80
51021;DHT22;38907;45.562;8.856;2023-02-11T23:11:43;3.10;94.70
51021;DHT22;38907;45.562;8.856;2023-02-11T23:16:46;3.10;94.70
51021;DHT22;38907;45.562;8.856;2023-02-11T23:21:50;3.10;94.80
51021;DHT22;38907;45.562;8.856;2023-02-11T23:26:54;3.10;95.00
51021;DHT22;38907;45.562;8.856;2023-02-11T23:31:56;3.10;95.20
51021;DHT22;38907;45.562;8.856;2023-02-11T23:36:58;3.10;95.40
51021;DHT22;38907;45.562;8.856;2023-02-11T23:42:01;3.00;95.80
51021;DHT22;38907;45.562;8.856;2023-02-11T23:47:03;3.00;96.40
51021;DHT22;38907;45.562;8.856;2023-02-11T23:52:05;2.80;96.90
51021;DHT22;38907;45.562;8.856;2023-02-11T23:57:09;2.50;97.80
